CST,Max TemperatureF,Mean TemperatureF,Min TemperatureF,Max Dew PointF,MeanDew PointF,Min DewpointF,Max Humidity, Mean Humidity, Min Humidity, Max Sea Level PressureIn, Mean Sea Level PressureIn, Min Sea Level PressureIn, Max VisibilityMiles, Mean VisibilityMiles, Min VisibilityMiles, Max Wind SpeedMPH, Mean Wind SpeedMPH, Max Gust SpeedMPH,PrecipitationIn, CloudCover, Events, WindDirDegrees
2012-12-1,75,58,41,55,47,37,100,80,29,29.94,29.87,29.79,10,7,2,23,11,29,0.00,2,,198
2012-12-2,68,52,37,55,45,37,100,83,45,30.04,29.93,29.81,10,6,2,17,3,24,0.00,1,,186
2012-12-3,77,64,51,59,49,32,88,64,22,30.05,29.86,29.74,10,10,7,26,18,34,0.00,2,,227
2012-12-4,66,50,33,39,31,23,75,59,19,30.33,30.22,30.06,10,10,10,16,10,,0.00,0,,351
2012-12-5,64,47,30,41,26,21,80,61,19,30.31,30.17,29.96,10,10,10,16,3,,0.00,1,,158
2012-12-6,66,50,35,48,40,30,100,80,43,29.95,29.86,29.77,10,9,5,16,9,22,0.00,2,,182
2012-12-7,50,44,37,45,41,36,100,84,71,29.92,29.87,29.82,10,8,4,15,10,,0.00,5,,347
2012-12-8,48,42,35,45,40,34,93,86,76,29.95,29.89,29.78,10,6,4,14,8,,0.00,7,,8
2012-12-9,48,38,28,45,28,9,100,67,36,30.16,29.96,29.78,10,7,2,26,13,33,0.00,5,,352
2012-12-10,37,27,17,12,7,3,63,49,24,30.19,30.11,30.04,10,10,10,23,13,31,0.00,0,,282
2012-12-11,51,32,14,16,11,5,79,57,24,30.15,30.10,30.04,10,10,10,13,6,,0.00,0,,185
2012-12-12,55,36,17,23,17,10,80,56,24,30.19,30.12,30.06,10,10,10,29,8,34,0.00,0,,172
2012-12-13,62,50,37,30,25,21,65,50,26,30.11,30.07,30.02,10,10,10,24,15,32,0.00,0,,183
2012-12-14,57,49,41,50,38,28,100,68,47,30.04,29.86,29.60,10,9,4,28,15,33,0.07,4,Rain-Thunderstorm,171
2012-12-15,62,50,39,45,39,36,87,73,45,29.76,29.66,29.56,10,10,10,24,15,32,0.00,1,,200
2012-12-16,53,43,33,39,35,32,100,84,51,29.79,29.72,29.67,10,9,5,17,5,23,0.00,1,,290
2012-12-17,59,42,26,37,32,27,100,80,34,29.87,29.77,29.70,10,10,5,14,8,,0.00,2,,245
2012-12-18,62,46,30,32,28,25,100,73,24,29.80,29.74,29.66,10,9,7,18,7,25,0.00,1,,140
2012-12-19,66,50,33,55,36,28,93,70,57,29.76,29.62,29.42,10,10,3,32,9,46,0.00,3,Rain-Snow,181
2012-12-20,46,34,23,32,18,5,93,59,18,30.33,30.15,29.74,10,10,10,39,22,51,0.00,1,,304
2012-12-21,60,38,17,19,14,10,79,53,17,30.33,30.25,30.17,10,10,10,12,3,,0.00,1,,170
2012-12-22,60,42,23,19,15,12,64,47,17,30.16,30.03,29.90,10,10,10,20,6,24,0.00,1,,180
2012-12-23,44,34,23,27,22,18,93,71,46,30.00,29.92,29.86,10,9,5,17,7,18,0.00,1,,350
2012-12-24,37,30,23,21,20,18,93,72,48,30.05,29.98,29.92,10,9,7,20,12,23,0.00,2,,11
2012-12-25,28,22,17,21,15,7,93,69,58,30.26,30.07,29.93,10,9,2,32,21,40,0.00,4,Snow,10
2012-12-26,30,21,12,14,10,7,79,67,40,30.27,30.17,30.06,10,10,10,21,13,26,0.00,2,,33
2012-12-27,37,29,21,25,21,14,86,79,60,30.06,29.95,29.84,10,9,7,23,7,20,0.00,3,,155
2012-12-28,33,28,21,27,17,9,93,65,38,30.18,30.05,29.94,10,9,7,20,9,29,0.00,4,,330
2012-12-29,48,29,10,21,14,5,86,67,32,30.39,30.28,30.18,10,10,10,12,7,,0.00,0,,263
2012-12-30,46,32,17,25,22,16,93,53,37,30.30,30.16,30.10,10,10,10,25,16,34,0.00,4,,185
2012-12-31,39,36,32,39,33,25,100,88,56,30.11,30.05,29.93,10,6,2,17,11,18,0.00,5,Snow,207